createdAt,value
2023-01-17T00:02:19.084Z,5.45
2023-01-17T00:05:04.817Z,3.15
2023-01-17T00:07:50.051Z,3.97
2023-01-17T00:10:21.782Z,5.90
2023-01-17T00:12:53.576Z,5.47
2023-01-17T00:15:23.240Z,5.53
2023-01-17T00:17:50.389Z,3.30
2023-01-17T00:20:37.937Z,6.88
2023-01-17T00:23:29.912Z,2.95
2023-01-17T00:26:02.961Z,3.38
2023-01-17T00:28:37.520Z,3.03
2023-01-17T00:31:06.263Z,2.75
2023-01-17T00:33:32.981Z,9.82
2023-01-17T00:36:01.723Z,4.72
2023-01-17T00:38:31.926Z,4.18
2023-01-17T00:41:03.159Z,3.65
2023-01-17T00:43:49.099Z,2.85
2023-01-17T00:46:34.994Z,4.55
2023-01-17T00:49:20.439Z,4.50
2023-01-17T00:52:05.647Z,4.38
2023-01-17T00:54:50.753Z,3.50
2023-01-17T00:57:35.907Z,7.47
2023-01-17T01:00:20.957Z,2.97
2023-01-17T01:03:06.272Z,4.72
2023-01-17T01:05:51.506Z,5.15
2023-01-17T01:08:45.799Z,3.97
2023-01-17T01:11:37.097Z,4.93
2023-01-17T01:14:22.870Z,3.17
2023-01-17T01:17:08.300Z,3.55
2023-01-17T01:19:53.503Z,5.43
2023-01-17T01:22:38.625Z,2.95
2023-01-17T01:25:24.384Z,4.57
2023-01-17T01:28:09.621Z,2.95
2023-01-17T01:30:54.769Z,4.80
2023-01-17T01:33:21.275Z,3.78
2023-01-17T01:35:53.846Z,4.25
2023-01-17T01:38:23.284Z,3.50
2023-01-17T01:40:52.727Z,5.00
2023-01-17T01:43:39.033Z,3.63
2023-01-17T01:46:06.690Z,2.50
2023-01-17T01:48:41.962Z,2.75
2023-01-17T01:51:12.198Z,5.20
2023-01-17T01:53:42.773Z,3.92
2023-01-17T01:56:14.070Z,5.45
2023-01-17T01:58:44.108Z,5.38
2023-01-17T02:01:10.842Z,5.85
2023-01-17T02:03:40.788Z,2.88
2023-01-17T02:06:34.187Z,4.53
2023-01-17T02:09:06.419Z,2.97
2023-01-17T02:11:34.707Z,2.83
2023-01-17T02:14:01.596Z,7.18
2023-01-17T02:16:54.564Z,3.38
2023-01-17T02:19:40.795Z,3.70
2023-01-17T02:22:34.163Z,3.08
2023-01-17T02:25:31.391Z,3.13
2023-01-17T02:28:16.262Z,6.88
2023-01-17T02:30:48.189Z,3.17
2023-01-17T02:33:37.867Z,3.50
2023-01-17T02:36:19.446Z,2.97
2023-01-17T02:39:09.918Z,3.75
2023-01-17T02:41:40.607Z,4.43
2023-01-17T02:44:15.331Z,2.72
2023-01-17T02:46:50.388Z,4.32
2023-01-17T02:49:19.277Z,3.25
2023-01-17T02:52:10.863Z,4.40
2023-01-17T02:55:03.574Z,4.68
2023-01-17T02:57:49.392Z,4.00
2023-01-17T03:00:27.743Z,5.20
2023-01-17T03:03:32.061Z,2.92
2023-01-17T03:06:12.231Z,2.80
2023-01-17T03:08:45.875Z,5.07
2023-01-17T03:11:13.792Z,7.30
2023-01-17T03:13:41.213Z,3.10
2023-01-17T03:16:34.160Z,4.85
2023-01-17T03:19:01.230Z,3.42
2023-01-17T03:21:27.725Z,7.32
2023-01-17T03:23:54.452Z,4.30
2023-01-17T03:26:21.152Z,3.38
2023-01-17T03:28:47.693Z,4.65
2023-01-17T03:31:15.976Z,15.15
2023-01-17T03:33:42.602Z,6.05
2023-01-17T03:36:09.592Z,6.60
2023-01-17T03:38:37.383Z,4.75
2023-01-17T03:41:04.634Z,4.95
2023-01-17T03:43:34.037Z,6.38
2023-01-17T03:46:17.123Z,8.00
2023-01-17T03:48:43.659Z,11.38
2023-01-17T03:51:10.194Z,3.40
2023-01-17T03:53:36.724Z,4.72
2023-01-17T03:56:04.619Z,4.57
2023-01-17T03:58:31.486Z,5.05
2023-01-17T04:00:58.059Z,7.75
2023-01-17T04:03:24.667Z,4.70
2023-01-17T04:05:53.296Z,4.25
2023-01-17T04:08:20.865Z,9.25
2023-01-17T04:10:48.633Z,4.85
2023-01-17T04:13:16.783Z,8.40
2023-01-17T04:15:48.404Z,4.22
2023-01-17T04:18:17.447Z,5.05
2023-01-17T04:20:44.208Z,6.90
2023-01-17T04:23:11.278Z,6.63
2023-01-17T04:25:37.880Z,4.13
2023-01-17T04:28:05.262Z,4.80
2023-01-17T04:30:32.749Z,6.60
2023-01-17T04:33:00.291Z,7.38
2023-01-17T04:35:28.923Z,6.57
2023-01-17T04:37:55.497Z,3.97
2023-01-17T04:40:22.364Z,8.90
2023-01-17T04:42:48.907Z,8.48
2023-01-17T04:45:15.751Z,5.97
2023-01-17T04:47:42.224Z,6.47
2023-01-17T04:50:10.050Z,4.13
2023-01-17T04:52:36.640Z,3.97
2023-01-17T04:55:03.399Z,7.80
2023-01-17T04:57:30.116Z,4.30
2023-01-17T04:59:56.633Z,6.22
2023-01-17T05:02:23.165Z,6.18
2023-01-17T05:04:49.664Z,4.07
2023-01-17T05:07:16.237Z,6.68
2023-01-17T05:09:43.837Z,7.13
2023-01-17T05:12:10.896Z,6.55
2023-01-17T05:14:37.442Z,5.45
2023-01-17T05:17:04.283Z,6.15
2023-01-17T05:19:30.873Z,6.28
2023-01-17T05:22:03.901Z,6.10
2023-01-17T05:24:31.527Z,4.55
2023-01-17T05:27:03.073Z,5.07
2023-01-17T05:29:30.515Z,6.50
2023-01-17T05:31:57.381Z,4.60
2023-01-17T05:34:24.068Z,9.93
2023-01-17T05:36:51.010Z,8.70
2023-01-17T05:39:17.771Z,7.45
2023-01-17T05:41:44.742Z,4.60
2023-01-17T05:44:11.567Z,6.30
2023-01-17T05:46:38.432Z,7.40
2023-01-17T05:49:05.384Z,4.93
2023-01-17T05:51:33.271Z,4.35
2023-01-17T05:53:59.786Z,4.60
2023-01-17T05:56:26.406Z,4.75
2023-01-17T05:58:52.908Z,5.03
2023-01-17T06:01:20.388Z,4.03
2023-01-17T06:03:46.915Z,4.13
2023-01-17T06:06:13.514Z,6.32
2023-01-17T06:08:40.076Z,6.95
2023-01-17T06:11:06.653Z,4.05
2023-01-17T06:13:34.184Z,3.35
2023-01-17T06:16:04.436Z,10.80
2023-01-17T06:18:31.898Z,5.15
2023-01-17T06:20:58.710Z,6.80
2023-01-17T06:23:25.762Z,9.70
2023-01-17T06:25:52.884Z,7.05
2023-01-17T06:28:22.659Z,6.07
2023-01-17T06:30:50.664Z,6.78
2023-01-17T06:33:17.573Z,6.07
2023-01-17T06:35:51.956Z,4.15
2023-01-17T06:38:21.867Z,5.28
2023-01-17T06:40:49.264Z,4.88
2023-01-17T06:43:15.956Z,5.25
2023-01-17T06:45:42.464Z,5.30
2023-01-17T06:48:08.972Z,4.65
2023-01-17T06:50:35.538Z,4.05
2023-01-17T06:53:05.099Z,4.13
2023-01-17T06:55:33.801Z,3.58
2023-01-17T06:58:02.801Z,4.35
2023-01-17T07:00:31.355Z,5.85
2023-01-17T07:02:58.070Z,5.85
2023-01-17T07:05:24.979Z,3.47
2023-01-17T07:07:51.584Z,4.32
2023-01-17T07:10:18.162Z,5.45
2023-01-17T07:12:44.683Z,5.82
2023-01-17T07:15:11.896Z,3.40
2023-01-17T07:17:38.918Z,6.05
2023-01-17T07:20:06.392Z,4.88
2023-01-17T07:22:32.884Z,4.43
2023-01-17T07:24:59.712Z,5.15
2023-01-17T07:27:27.767Z,7.32
2023-01-17T07:29:54.470Z,7.43
2023-01-17T07:32:21.076Z,6.20
2023-01-17T07:34:47.553Z,5.70
2023-01-17T07:37:15.349Z,11.57
2023-01-17T07:39:42.157Z,11.50
2023-01-17T07:42:09.127Z,7.28
2023-01-17T07:44:35.594Z,5.43
2023-01-17T07:49:28.406Z,4.60
2023-01-17T07:51:55.507Z,8.80
2023-01-17T07:54:22.080Z,13.35
2023-01-17T07:56:48.996Z,13.65
2023-01-17T07:59:15.605Z,11.52
2023-01-17T08:01:42.249Z,8.40
2023-01-17T08:04:09.413Z,8.35
2023-01-17T08:06:39.385Z,9.20
2023-01-17T08:09:05.848Z,4.45
2023-01-17T08:11:32.322Z,6.57
2023-01-17T08:13:59.767Z,6.18
2023-01-17T08:16:28.718Z,5.93
2023-01-17T08:18:56.375Z,4.75
2023-01-17T08:21:24.376Z,9.45
2023-01-17T08:23:51.997Z,7.78
2023-01-17T08:26:23.351Z,6.25
2023-01-17T08:28:58.159Z,4.10
2023-01-17T08:31:24.815Z,4.50
2023-01-17T08:33:51.340Z,3.58
2023-01-17T08:38:44.473Z,5.32
2023-01-17T08:41:11.155Z,10.60
2023-01-17T08:43:37.665Z,6.57
2023-01-17T08:46:06.140Z,6.20
2023-01-17T08:48:32.672Z,4.55
2023-01-17T08:51:02.674Z,6.15
2023-01-17T08:53:29.227Z,4.80
2023-01-17T08:56:00.557Z,6.43
2023-01-17T08:58:30.583Z,4.85
2023-01-17T09:01:05.136Z,5.07
2023-01-17T09:03:32.761Z,6.75
2023-01-17T09:06:10.369Z,4.05
2023-01-17T09:08:37.211Z,6.75
2023-01-17T09:11:11.632Z,7.53
2023-01-17T09:13:38.812Z,17.10
2023-01-17T09:16:06.885Z,11.73
2023-01-17T09:18:34.401Z,12.93
2023-01-17T09:21:10.265Z,7.65
2023-01-17T09:23:36.868Z,8.35
2023-01-17T09:26:03.320Z,9.65
2023-01-17T09:30:56.207Z,7.53
2023-01-17T09:33:25.661Z,5.50
2023-01-17T09:35:52.222Z,7.70
2023-01-17T09:38:18.780Z,7.60
2023-01-17T09:40:48.294Z,7.10
2023-01-17T09:43:40.921Z,6.20
2023-01-17T09:46:22.299Z,8.07
2023-01-17T09:48:55.947Z,9.23
2023-01-17T09:51:26.915Z,8.65
2023-01-17T09:53:54.556Z,7.57
2023-01-17T09:56:29.606Z,6.63
2023-01-17T09:59:20.847Z,9.18
2023-01-17T10:01:52.754Z,8.80
2023-01-17T10:04:37.989Z,5.95
2023-01-17T10:07:07.142Z,11.48
2023-01-17T10:09:55.359Z,8.52
2023-01-17T10:12:33.466Z,5.60
2023-01-17T10:15:22.028Z,7.55
2023-01-17T10:18:03.632Z,10.88
2023-01-17T10:20:49.539Z,4.63
2023-01-17T10:23:41.705Z,9.73
2023-01-17T10:26:15.191Z,8.18
2023-01-17T10:28:47.110Z,5.60
2023-01-17T10:31:35.531Z,7.35
2023-01-17T10:34:10.749Z,4.97
2023-01-17T10:36:44.882Z,6.47
2023-01-17T10:39:25.918Z,6.30
2023-01-17T10:41:55.494Z,9.15
2023-01-17T10:44:32.318Z,4.95
2023-01-17T10:47:11.069Z,6.50
2023-01-17T10:49:42.357Z,5.10
2023-01-17T10:52:22.789Z,6.82
2023-01-17T10:54:50.029Z,8.52
2023-01-17T10:57:21.477Z,7.38
2023-01-17T10:59:48.576Z,3.67
2023-01-17T11:02:23.846Z,4.78
2023-01-17T11:04:55.800Z,7.25
2023-01-17T11:07:25.294Z,9.73
2023-01-17T11:09:54.468Z,11.25
2023-01-17T11:12:28.260Z,8.93
2023-01-17T11:32:32.569Z,5.60
2023-01-17T11:35:21.776Z,7.68
2023-01-17T11:37:51.228Z,3.92
2023-01-17T11:40:20.539Z,4.10
2023-01-17T11:42:47.081Z,4.35
2023-01-17T11:45:25.576Z,8.25
2023-01-17T11:48:05.380Z,5.65
2023-01-17T11:50:31.991Z,3.13
2023-01-17T11:53:15.259Z,5.72
2023-01-17T11:55:55.856Z,4.22
2023-01-17T11:58:24.221Z,3.88
2023-01-17T12:01:10.771Z,5.80
2023-01-17T12:03:47.435Z,5.63
2023-01-17T12:06:19.707Z,6.85
2023-01-17T12:08:54.105Z,6.00
2023-01-17T12:11:39.394Z,4.38
2023-01-17T12:14:17.049Z,4.88
2023-01-17T12:17:11.545Z,3.65
2023-01-17T12:20:05.098Z,3.42
2023-01-17T12:23:06.128Z,6.00
2023-01-17T12:25:54.536Z,7.22
2023-01-17T12:28:37.180Z,2.95
2023-01-17T12:31:24.539Z,4.03
2023-01-17T12:34:03.464Z,6.28
2023-01-17T12:36:36.226Z,4.22
2023-01-17T12:39:10.119Z,3.05
2023-01-17T12:41:50.947Z,2.75
2023-01-17T12:44:20.041Z,3.75
2023-01-17T12:46:54.679Z,5.78
2023-01-17T12:49:36.432Z,3.10
2023-01-17T12:52:13.806Z,2.67
2023-01-17T12:54:44.805Z,6.93
2023-01-17T12:57:20.312Z,3.28
2023-01-17T13:00:05.001Z,5.20
2023-01-17T13:02:52.665Z,6.82
2023-01-17T13:05:48.814Z,6.90
2023-01-17T13:08:35.902Z,5.30
2023-01-17T13:11:28.286Z,4.65
2023-01-17T13:13:57.551Z,3.40
2023-01-17T13:16:33.995Z,3.85
2023-01-17T13:19:12.821Z,5.85
2023-01-17T13:21:41.133Z,4.18
2023-01-17T13:24:13.592Z,4.13
2023-01-17T13:27:02.195Z,3.78
2023-01-17T13:29:59.084Z,6.55
2023-01-17T13:32:48.569Z,5.35
2023-01-17T13:35:21.385Z,8.48
2023-01-17T13:37:56.763Z,4.20
2023-01-17T13:40:32.918Z,8.05
2023-01-17T13:43:10.996Z,9.10
2023-01-17T13:45:38.174Z,11.57
2023-01-17T13:48:17.159Z,2.88
2023-01-17T13:50:48.100Z,2.85
2023-01-17T13:53:39.391Z,4.75
2023-01-17T13:56:31.791Z,7.60
2023-01-17T13:59:04.954Z,4.20
2023-01-17T14:01:42.985Z,4.95
2023-01-17T14:04:11.625Z,3.72
2023-01-17T14:06:47.781Z,3.67
2023-01-17T14:09:42.244Z,8.93
2023-01-17T14:12:08.744Z,3.08
2023-01-17T14:14:41.507Z,5.07
2023-01-17T14:17:44.196Z,3.85
2023-01-17T14:20:12.409Z,8.40
2023-01-17T14:22:47.450Z,8.65
2023-01-17T14:25:19.174Z,11.68
2023-01-17T14:27:49.091Z,10.38
2023-01-17T14:30:25.065Z,29.08
2023-01-17T14:33:05.936Z,9.13
2023-01-17T14:35:36.283Z,5.03
2023-01-17T14:38:05.615Z,7.13
2023-01-17T14:40:34.131Z,6.07
2023-01-17T14:43:04.307Z,5.13
2023-01-17T14:45:34.563Z,9.02
2023-01-17T14:48:04.317Z,19.17
2023-01-17T14:50:39.875Z,5.80
2023-01-17T14:53:12.612Z,5.72
2023-01-17T14:55:47.957Z,5.03
2023-01-17T14:58:18.548Z,7.50
2023-01-17T15:00:46.783Z,6.60
2023-01-17T15:03:13.649Z,7.30
2023-01-17T15:05:43.073Z,4.90
2023-01-17T15:08:18.390Z,7.90
2023-01-17T15:11:02.944Z,10.95
2023-01-17T15:13:44.274Z,11.25
2023-01-17T15:16:19.176Z,6.90
2023-01-17T15:18:46.302Z,6.45
2023-01-17T15:21:17.245Z,4.82
2023-01-17T15:23:47.301Z,5.13
2023-01-17T15:26:17.944Z,4.57
2023-01-17T15:28:45.589Z,7.13
2023-01-17T15:31:15.801Z,9.45
2023-01-17T15:33:45.575Z,5.32
2023-01-17T15:36:23.925Z,5.65
2023-01-17T15:39:06.270Z,9.00
2023-01-17T15:41:39.569Z,8.57
2023-01-17T15:44:08.075Z,11.27
2023-01-17T15:46:43.194Z,12.07
2023-01-17T15:49:22.245Z,8.70
2023-01-17T15:51:56.247Z,17.02
2023-01-17T15:54:33.690Z,8.45
2023-01-17T15:57:06.673Z,5.97
2023-01-17T15:59:42.706Z,6.32
2023-01-17T16:02:43.558Z,5.90
2023-01-17T16:05:22.883Z,6.97
2023-01-17T16:07:55.964Z,8.52
2023-01-17T16:10:24.877Z,5.88
2023-01-17T16:12:53.791Z,5.28
2023-01-17T16:15:22.115Z,3.55
2023-01-17T16:17:51.508Z,5.70
2023-01-17T16:20:30.035Z,5.03
2023-01-17T16:22:56.663Z,12.07
2023-01-17T16:25:24.404Z,17.95
2023-01-17T16:27:52.128Z,12.55
2023-01-17T16:30:21.661Z,15.30
2023-01-17T16:32:49.027Z,12.23
2023-01-17T16:35:20.945Z,11.48
2023-01-17T16:38:04.882Z,10.20
2023-01-17T16:40:38.444Z,14.00
2023-01-17T16:43:05.038Z,13.50
2023-01-17T16:45:38.973Z,12.63
2023-01-17T16:48:05.888Z,12.65
2023-01-17T16:50:32.624Z,14.70
2023-01-17T16:52:59.135Z,14.18
2023-01-17T16:55:26.453Z,14.68
2023-01-17T16:57:56.225Z,16.15
2023-01-17T17:00:23.152Z,9.93
2023-01-17T17:02:50.907Z,14.02
2023-01-17T17:05:18.361Z,11.13
2023-01-17T17:07:46.211Z,11.57
2023-01-17T17:10:15.538Z,11.93
2023-01-17T17:12:42.469Z,15.18
2023-01-17T17:15:10.575Z,14.52
2023-01-17T17:17:40.971Z,18.08
2023-01-17T17:20:13.603Z,12.48
2023-01-17T17:22:42.964Z,12.15
2023-01-17T17:25:11.191Z,17.58
2023-01-17T17:27:38.244Z,12.18
2023-01-17T17:30:05.168Z,10.25
2023-01-17T17:32:32.536Z,8.27
2023-01-17T17:34:59.381Z,9.02
2023-01-17T17:37:28.958Z,10.95
2023-01-17T17:39:56.601Z,9.13
2023-01-17T17:42:23.255Z,11.63
2023-01-17T17:44:50.108Z,8.15
2023-01-17T17:47:17.879Z,12.10
2023-01-17T17:49:44.509Z,25.98
2023-01-17T17:52:11.121Z,32.30
2023-01-17T17:54:37.813Z,24.98
2023-01-17T17:57:04.600Z,16.77
2023-01-17T17:59:31.205Z,10.00
2023-01-17T18:01:59.628Z,10.80
2023-01-17T18:04:26.898Z,8.55
2023-01-17T18:06:58.015Z,11.48
2023-01-17T18:09:24.587Z,13.70
2023-01-17T18:11:51.211Z,20.50
2023-01-17T18:14:20.953Z,24.35
2023-01-17T18:16:48.353Z,19.02
2023-01-17T18:19:18.318Z,10.57
2023-01-17T18:21:45.063Z,13.15
2023-01-17T18:24:16.528Z,14.18
2023-01-17T18:26:54.501Z,11.98
2023-01-17T18:29:22.632Z,10.38
2023-01-17T18:31:50.739Z,11.93
2023-01-17T18:34:21.286Z,9.43
2023-01-17T18:36:47.788Z,11.43
2023-01-17T18:39:24.470Z,8.65
2023-01-17T18:41:51.720Z,12.13
2023-01-17T18:44:21.821Z,7.90
2023-01-17T18:46:50.149Z,10.43
2023-01-17T18:49:19.162Z,9.07
2023-01-17T18:51:50.967Z,8.57
2023-01-17T18:54:19.162Z,11.38
2023-01-17T18:56:46.106Z,10.85
2023-01-17T18:59:13.890Z,12.57
2023-01-17T19:01:43.798Z,11.10
2023-01-17T19:04:12.245Z,10.65
2023-01-17T19:06:41.572Z,13.43
2023-01-17T19:09:09.115Z,14.52
2023-01-17T19:11:36.645Z,9.38
2023-01-17T19:14:04.073Z,17.50
2023-01-17T19:16:34.608Z,19.83
2023-01-17T19:19:04.436Z,30.10
2023-01-17T19:21:31.868Z,31.70
2023-01-17T19:23:58.816Z,27.77
2023-01-17T19:26:27.385Z,16.25
2023-01-17T19:28:56.209Z,12.07
2023-01-17T19:31:25.693Z,7.30
2023-01-17T19:33:54.295Z,8.13
2023-01-17T19:36:25.787Z,13.95
2023-01-17T19:39:04.120Z,13.23
2023-01-17T19:41:32.005Z,11.40
2023-01-17T19:44:07.157Z,9.80
2023-01-17T19:46:34.551Z,20.98
2023-01-17T19:49:01.454Z,19.98
2023-01-17T19:51:28.311Z,17.80
2023-01-17T19:53:55.278Z,15.63
2023-01-17T19:56:24.585Z,9.35
2023-01-17T19:58:52.190Z,16.15
2023-01-17T20:01:22.078Z,19.27
2023-01-17T20:03:49.574Z,20.98
2023-01-17T20:06:19.239Z,20.25
2023-01-17T20:08:45.993Z,14.30
2023-01-17T20:11:15.251Z,13.43
2023-01-17T20:13:42.296Z,15.77
2023-01-17T20:16:11.282Z,17.55
2023-01-17T20:18:37.852Z,11.95
2023-01-17T20:21:05.260Z,6.22
2023-01-17T20:23:40.217Z,10.80
2023-01-17T20:26:06.779Z,9.63
2023-01-17T20:28:34.886Z,11.23
2023-01-17T20:31:09.902Z,9.02
2023-01-17T20:33:36.491Z,7.82
2023-01-17T20:36:10.655Z,7.40
2023-01-17T20:38:44.527Z,7.13
2023-01-17T20:41:20.811Z,7.78
2023-01-17T20:43:52.825Z,7.13
2023-01-17T20:46:21.560Z,10.73
2023-01-17T20:48:50.596Z,12.23
2023-01-17T20:51:18.396Z,19.58
2023-01-17T20:53:46.493Z,25.83
2023-01-17T20:56:15.953Z,23.73
2023-01-17T20:58:42.797Z,18.40
2023-01-17T21:01:12.017Z,20.75
2023-01-17T21:03:39.678Z,18.33
2023-01-17T21:06:08.712Z,17.42
2023-01-17T21:08:37.404Z,15.32
2023-01-17T21:11:05.673Z,13.13
2023-01-17T21:13:32.475Z,13.38
2023-01-17T21:15:59.616Z,20.45
2023-01-17T21:18:28.180Z,12.00
2023-01-17T21:20:54.768Z,12.73
2023-01-17T21:23:23.435Z,15.52
2023-01-17T21:25:55.551Z,9.85
2023-01-17T21:28:23.714Z,10.52
2023-01-17T21:30:50.495Z,16.77
2023-01-17T21:33:18.215Z,30.63
2023-01-17T21:35:44.823Z,15.32
2023-01-17T21:38:12.199Z,12.30
2023-01-17T21:40:38.956Z,10.90
2023-01-17T21:43:05.559Z,15.15
2023-01-17T21:45:35.718Z,17.48
2023-01-17T21:48:02.210Z,13.68
2023-01-17T21:50:33.338Z,16.00
2023-01-17T21:53:00.294Z,12.23
2023-01-17T21:55:46.006Z,12.52
2023-01-17T21:58:36.031Z,12.48
2023-01-17T22:01:18.939Z,14.23
2023-01-17T22:03:49.199Z,21.20
2023-01-17T22:06:16.147Z,12.75
2023-01-17T22:08:42.935Z,16.25
2023-01-17T22:11:12.814Z,11.48
2023-01-17T22:13:40.905Z,12.05
2023-01-17T22:16:10.735Z,8.65
2023-01-17T22:18:39.305Z,8.85
2023-01-17T22:21:08.411Z,13.32
2023-01-17T22:23:35.180Z,10.05
2023-01-17T22:26:09.838Z,12.45
2023-01-17T22:28:37.134Z,12.05
2023-01-17T22:31:23.382Z,10.52
2023-01-17T22:33:58.505Z,12.23
2023-01-17T22:36:25.888Z,12.88
2023-01-17T22:38:52.759Z,14.38
2023-01-17T22:41:24.952Z,13.88
2023-01-17T22:43:53.882Z,13.25
2023-01-17T22:46:26.795Z,14.43
2023-01-17T22:48:54.996Z,9.88
2023-01-17T22:51:23.064Z,10.45
2023-01-17T22:53:51.991Z,12.00
2023-01-17T22:56:21.528Z,11.43
2023-01-17T22:58:49.040Z,13.02
2023-01-17T23:17:53.163Z,20.17
2023-01-17T23:20:19.851Z,20.20
2023-01-17T23:22:46.505Z,29.83
2023-01-17T23:25:13.460Z,23.38
2023-01-17T23:28:00.168Z,28.33
2023-01-17T23:30:34.444Z,30.92
2023-01-17T23:33:09.695Z,32.65
2023-01-17T23:35:41.692Z,22.08
2023-01-17T23:38:33.801Z,22.35
2023-01-17T23:41:24.551Z,17.67
2023-01-17T23:43:53.382Z,24.65
2023-01-17T23:46:20.477Z,22.88
2023-01-17T23:48:47.705Z,24.48
2023-01-17T23:51:14.401Z,19.23
2023-01-17T23:53:41.514Z,26.30
2023-01-17T23:56:17.048Z,25.60
2023-01-17T23:58:43.781Z,29.95
